Time;durP1;ratioP1;P1;durP2;ratioP2;P2;SDS_P1;SDS_P2;PMS_P1;PMS_P2;Temp;Humidity;BMP_temperature;BMP_pressure;BME280_temperature;BME280_humidity;BME280_pressure;Samples;Min_cycle;Max_cycle;Signal;HPM_P1;HPM_P2
2023/11/07 00:02:08;;;;;;;7.30;3.90;;;;;;;9.38;92.25;100014.96;105554;1254;97021;-76
2023/11/07 00:04:55;;;;;;;9.50;4.40;;;;;;;9.32;92.40;100020.96;105598;1253;101858;-78
2023/11/07 00:07:41;;;;;;;10.00;4.30;;;;;;;9.27;92.52;100022.15;105567;1254;99114;-77
2023/11/07 00:10:28;;;;;;;7.10;3.60;;;;;;;9.22;92.80;100027.79;105520;1257;98933;-78
2023/11/07 00:13:14;;;;;;;8.40;4.50;;;;;;;9.16;92.90;100027.66;105588;1257;97940;-77
2023/11/07 00:15:59;;;;;;;8.20;3.90;;;;;;;9.12;93.11;100027.73;105464;1257;96910;-77
2023/11/07 00:18:46;;;;;;;10.30;4.10;;;;;;;9.07;93.25;100025.76;105415;1254;109638;-78
2023/11/07 00:21:32;;;;;;;11.60;5.00;;;;;;;9.01;93.49;100030.25;105567;1253;99114;-77
2023/11/07 00:24:18;;;;;;;8.50;4.40;;;;;;;8.94;93.53;100035.08;105856;1253;99464;-77
2023/11/07 00:27:04;;;;;;;12.30;4.30;;;;;;;8.87;93.69;100037.89;105606;1259;96705;-77
2023/11/07 00:29:49;;;;;;;11.30;5.00;;;;;;;8.82;93.92;100042.87;105651;1257;97224;-77
2023/11/07 00:32:35;;;;;;;12.10;5.20;;;;;;;8.78;94.25;100045.73;105673;1254;100015;-77
2023/11/07 00:35:20;;;;;;;14.50;6.20;;;;;;;8.71;94.30;100048.13;105597;1253;100395;-76
2023/11/07 00:38:06;;;;;;;13.30;5.70;;;;;;;8.66;94.74;100051.04;105545;1253;97801;-77
2023/11/07 00:40:52;;;;;;;10.50;4.90;;;;;;;8.63;95.02;100053.45;105674;1254;97883;-77
2023/11/07 00:43:39;;;;;;;12.50;5.70;;;;;;;8.61;94.99;100053.73;105630;1253;97118;-77
2023/11/07 00:46:25;;;;;;;10.70;4.90;;;;;;;8.56;95.21;100053.34;105633;1254;101227;-77
2023/11/07 00:49:10;;;;;;;12.20;5.20;;;;;;;8.51;95.55;100051.66;105562;1257;100283;-76
2023/11/07 00:51:59;;;;;;;9.20;5.40;;;;;;;8.48;95.84;100052.08;105502;1259;98510;-78
2023/11/07 00:54:45;;;;;;;11.20;5.20;;;;;;;8.44;95.91;100052.98;105601;1257;97887;-78
2023/11/07 00:57:31;;;;;;;11.80;5.60;;;;;;;8.41;95.87;100055.87;105612;1255;96981;-77
2023/11/07 01:00:17;;;;;;;11.40;4.90;;;;;;;8.40;96.10;100058.56;105935;1268;99972;-78
2023/11/07 01:03:03;;;;;;;14.40;6.30;;;;;;;8.37;96.06;100067.14;105515;1259;100741;-78
2023/11/07 01:05:48;;;;;;;11.40;5.40;;;;;;;8.35;96.14;100065.05;105620;1253;97522;-79
2023/11/07 01:08:34;;;;;;;9.30;5.30;;;;;;;8.33;96.33;100064.91;105676;1259;96609;-78
2023/11/07 01:11:19;;;;;;;13.70;5.30;;;;;;;8.31;96.36;100068.02;105768;1254;97858;-78
2023/11/07 01:14:05;;;;;;;11.10;5.00;;;;;;;8.28;96.46;100066.65;105751;1254;100079;-78
2023/11/07 01:16:50;;;;;;;11.00;4.90;;;;;;;8.26;96.61;100061.68;105578;1254;99255;-77
2023/11/07 01:19:36;;;;;;;7.20;4.30;;;;;;;8.22;96.58;100056.96;105557;1260;99940;-78
2023/11/07 01:22:22;;;;;;;7.40;4.50;;;;;;;8.19;96.47;100059.70;105565;1257;97784;-77
2023/11/07 01:25:09;;;;;;;11.50;4.90;;;;;;;8.18;96.68;100061.83;105633;1257;97097;-77
2023/11/07 01:27:55;;;;;;;8.70;4.70;;;;;;;8.16;96.66;100059.92;105517;1257;99950;-75
2023/11/07 01:30:40;;;;;;;12.00;5.50;;;;;;;8.14;96.67;100060.10;105583;1257;99666;-77
2023/11/07 01:33:26;;;;;;;11.50;4.90;;;;;;;8.14;96.80;100058.52;105585;1254;97900;-77
2023/11/07 01:36:12;;;;;;;12.40;4.90;;;;;;;8.11;96.62;100060.27;105582;1257;97228;-77
2023/11/07 01:38:57;;;;;;;9.00;4.60;;;;;;;8.08;96.85;100060.80;105475;1254;96540;-76
2023/11/07 01:41:44;;;;;;;10.60;4.70;;;;;;;8.06;96.77;100065.39;105544;1259;100755;-77
2023/11/07 01:44:30;;;;;;;10.20;5.30;;;;;;;8.03;96.77;100062.56;105473;1253;99252;-78
2023/11/07 01:47:16;;;;;;;5.90;4.00;;;;;;;8.00;96.69;100063.46;105498;1253;97730;-78
2023/11/07 01:50:04;;;;;;;9.80;4.60;;;;;;;7.97;96.81;100066.05;105176;1262;97490;-77
2023/11/07 01:52:49;;;;;;;10.30;4.90;;;;;;;7.96;97.08;100064.10;105516;1257;96550;-77
2023/11/07 01:55:37;;;;;;;6.60;4.20;;;;;;;7.94;97.21;100060.98;105517;1258;100004;-76
2023/11/07 01:58:24;;;;;;;10.80;4.70;;;;;;;7.91;96.93;100061.83;105602;1259;99819;-78
2023/11/07 02:01:10;;;;;;;12.60;5.30;;;;;;;7.89;96.83;100062.58;105632;1256;97804;-77
2023/11/07 02:03:57;;;;;;;8.10;4.70;;;;;;;7.87;96.98;100065.33;106002;1257;96597;-78
2023/11/07 02:06:43;;;;;;;8.70;4.40;;;;;;;7.86;97.10;100066.88;106887;1253;97218;-76
2023/11/07 02:09:31;;;;;;;9.30;4.20;;;;;;;7.83;97.09;100069.00;105484;1257;100045;-78
2023/11/07 02:12:16;;;;;;;8.90;4.90;;;;;;;7.82;97.19;100070.05;105755;1254;100151;-77
2023/11/07 02:15:23;;;;;;;10.20;4.10;;;;;;;7.80;97.14;100067.39;105550;1254;97778;-78
2023/11/07 02:18:08;;;;;;;7.30;4.20;;;;;;;7.78;97.18;100068.84;105432;1260;96604;-78
2023/11/07 02:20:55;;;;;;;7.90;4.20;;;;;;;7.77;97.33;100070.02;105519;1257;97144;-78
2023/11/07 02:23:40;;;;;;;13.40;4.10;;;;;;;7.74;97.34;100071.83;105255;1259;100878;-78
2023/11/07 02:26:26;;;;;;;8.70;5.10;;;;;;;7.73;97.44;100071.06;105527;1257;99134;-77
2023/11/07 02:29:11;;;;;;;11.90;4.60;;;;;;;7.73;97.58;100070.23;105535;1258;97759;-77
2023/11/07 02:31:57;;;;;;;8.10;4.60;;;;;;;7.70;97.47;100071.02;105562;1254;97196;-77
2023/11/07 02:34:42;;;;;;;9.30;4.50;;;;;;;7.69;97.56;100069.07;105608;1253;96654;-78
2023/11/07 02:37:28;;;;;;;9.30;4.10;;;;;;;7.68;97.67;100066.21;105536;1254;101236;-79
2023/11/07 02:40:13;;;;;;;6.90;4.20;;;;;;;7.66;97.57;100066.73;105619;1258;100850;-78
2023/11/07 02:43:02;;;;;;;10.30;4.20;;;;;;;7.66;97.48;100070.86;105609;1257;97747;-78
2023/11/07 02:45:47;;;;;;;8.90;4.00;;;;;;;7.65;97.63;100074.71;105695;1259;96801;-78
2023/11/07 02:48:33;;;;;;;6.90;4.10;;;;;;;7.64;97.71;100075.17;105594;1254;97118;-78
2023/11/07 02:51:19;;;;;;;8.10;4.30;;;;;;;7.63;97.70;100071.56;105554;1253;99990;-79
2023/11/07 02:54:04;;;;;;;7.40;4.50;;;;;;;7.63;97.71;100070.56;105600;1257;99068;-78
2023/11/07 02:56:50;;;;;;;10.50;4.30;;;;;;;7.62;97.67;100067.15;105535;1254;98447;-79
2023/11/07 02:59:35;;;;;;;8.30;4.10;;;;;;;7.61;97.50;100064.58;105525;1254;96695;-78
2023/11/07 03:02:23;;;;;;;6.90;4.00;;;;;;;7.61;97.54;100067.58;105496;1254;97167;-77
2023/11/07 03:05:09;;;;;;;11.00;4.30;;;;;;;7.60;97.73;100068.80;105516;1258;101761;-77
2023/11/07 03:07:54;;;;;;;7.70;4.40;;;;;;;7.59;97.65;100072.84;105569;1253;99074;-77
2023/11/07 03:10:40;;;;;;;11.10;4.20;;;;;;;7.58;97.79;100072.88;105617;1257;98993;-76
2023/11/07 03:13:26;;;;;;;10.00;4.50;;;;;;;7.59;97.75;100071.77;105505;1257;96751;-77
2023/11/07 03:16:12;;;;;;;8.60;4.30;;;;;;;7.59;97.78;100068.14;105631;1257;96606;-77
2023/11/07 03:18:57;;;;;;;13.90;5.00;;;;;;;7.59;97.99;100068.17;105669;1253;100037;-77
2023/11/07 03:21:42;;;;;;;8.60;5.00;;;;;;;7.57;97.72;100071.41;105622;1257;99375;-77
2023/11/07 03:24:28;;;;;;;15.60;4.80;;;;;;;7.56;97.58;100085.08;105576;1253;97781;-78
2023/11/07 03:27:14;;;;;;;9.90;4.30;;;;;;;7.55;97.76;100093.98;105555;1259;97787;-77
2023/11/07 03:30:00;;;;;;;10.30;5.00;;;;;;;7.57;98.26;100090.53;105663;1257;97760;-76
2023/11/07 03:32:46;;;;;;;9.90;4.40;;;;;;;7.59;98.28;100091.91;105599;1253;101189;-78
2023/11/07 03:35:31;;;;;;;11.20;4.90;;;;;;;7.59;98.31;100095.48;105605;1253;100092;-77
2023/11/07 03:38:17;;;;;;;10.80;5.90;;;;;;;7.60;98.53;100096.41;105545;1258;99576;-78
2023/11/07 03:41:04;;;;;;;7.50;4.60;;;;;;;7.62;98.67;100093.52;105561;1255;96604;-77
2023/11/07 03:43:51;;;;;;;11.00;4.90;;;;;;;7.65;98.68;100091.92;105746;1254;96589;-78
2023/11/07 03:46:36;;;;;;;9.40;4.60;;;;;;;7.68;98.77;100090.73;105704;1254;100035;-79
2023/11/07 03:49:22;;;;;;;9.10;4.60;;;;;;;7.70;98.59;100090.61;105585;1253;99102;-78
2023/11/07 03:52:07;;;;;;;8.50;4.40;;;;;;;7.71;98.40;100090.91;105603;1257;98766;-77
2023/11/07 03:54:53;;;;;;;8.80;4.20;;;;;;;7.71;98.19;100093.94;105540;1258;96633;-78
2023/11/07 03:57:39;;;;;;;9.10;4.40;;;;;;;7.70;98.06;100094.25;105509;1254;97269;-77
2023/11/07 04:00:24;;;;;;;10.80;4.60;;;;;;;7.68;97.94;100093.34;105444;1257;100922;-77
2023/11/07 04:03:10;;;;;;;10.50;4.80;;;;;;;7.67;97.80;100094.38;105549;1257;99685;-78
2023/11/07 04:05:56;;;;;;;8.00;3.70;;;;;;;7.66;98.12;100096.45;105552;1258;97531;-77
2023/11/07 04:08:41;;;;;;;9.10;4.20;;;;;;;7.67;98.33;100095.95;105637;1259;96600;-78
2023/11/07 04:11:28;;;;;;;8.10;3.90;;;;;;;7.69;98.61;100094.29;105609;1259;96607;-77
2023/11/07 04:14:17;;;;;;;10.90;4.80;;;;;;;7.72;98.69;100098.19;105720;1257;100047;-78
2023/11/07 04:17:04;;;;;;;7.80;4.30;;;;;;;7.76;98.87;100098.49;105751;1253;99855;-79
2023/11/07 04:19:50;;;;;;;13.90;5.90;;;;;;;7.80;98.99;100098.15;105559;1257;98965;-77
2023/11/07 04:22:36;;;;;;;14.60;4.70;;;;;;;7.85;99.17;100100.81;105579;1254;96593;-78
2023/11/07 04:25:22;;;;;;;8.50;4.30;;;;;;;7.89;99.30;100103.34;105557;1269;96585;-78
2023/11/07 04:28:08;;;;;;;6.40;3.50;;;;;;;7.93;99.19;100106.23;105547;1257;100805;-77
2023/11/07 04:30:54;;;;;;;8.50;4.30;;;;;;;7.98;99.11;100107.45;105514;1254;100612;-78
2023/11/07 04:33:39;;;;;;;7.60;3.90;;;;;;;8.02;99.05;100105.30;105492;1254;97851;-78
2023/11/07 04:36:25;;;;;;;6.40;3.60;;;;;;;8.07;98.94;100105.95;105685;1257;96678;-79
2023/11/07 04:39:11;;;;;;;7.40;3.70;;;;;;;8.11;98.83;100103.67;105455;1257;98304;-79
2023/11/07 04:41:57;;;;;;;8.40;4.40;;;;;;;8.15;98.88;100097.88;105522;1254;100097;-77
2023/11/07 04:44:44;;;;;;;7.90;3.70;;;;;;;8.18;98.70;100103.70;105878;1257;98970;-79
2023/11/07 04:47:29;;;;;;;8.00;4.00;;;;;;;8.22;98.53;100107.57;105628;1255;99018;-78
2023/11/07 04:50:16;;;;;;;8.60;3.60;;;;;;;8.25;98.60;100104.19;105508;1259;96716;-78
2023/11/07 04:53:04;;;;;;;8.20;4.00;;;;;;;8.28;98.66;100104.71;105483;1256;97245;-78
2023/11/07 04:55:49;;;;;;;8.40;3.80;;;;;;;8.30;98.51;100110.28;105578;1253;99980;-77
2023/11/07 04:58:36;;;;;;;8.70;3.50;;;;;;;8.32;98.28;100116.09;105593;1257;100562;-77
2023/11/07 05:01:22;;;;;;;9.60;3.90;;;;;;;8.34;98.26;100111.64;105584;1257;97765;-77
2023/11/07 05:04:07;;;;;;;7.50;3.60;;;;;;;8.35;98.25;100115.39;105513;1253;96609;-77
2023/11/07 05:06:54;;;;;;;8.60;3.60;;;;;;;8.36;98.35;100118.60;105567;1253;97048;-79
2023/11/07 05:09:39;;;;;;;12.30;4.60;;;;;;;8.38;98.26;100119.45;105603;1257;99974;-77
2023/11/07 05:12:25;;;;;;;6.20;4.30;;;;;;;8.39;98.43;100120.34;105633;1254;100138;-78
2023/11/07 05:15:11;;;;;;;6.10;3.40;;;;;;;8.41;98.34;100122.80;105425;1259;97803;-77
2023/11/07 05:17:56;;;;;;;6.80;3.90;;;;;;;8.43;98.24;100124.73;105525;1256;96744;-77
2023/11/07 05:20:43;;;;;;;8.70;3.80;;;;;;;8.44;98.43;100129.40;105502;1258;97122;-78
2023/11/07 05:23:28;;;;;;;7.90;3.70;;;;;;;8.45;98.44;100131.05;105653;1257;99979;-78
2023/11/07 05:26:14;;;;;;;7.40;3.90;;;;;;;8.45;98.39;100133.48;105564;1253;100433;-77
2023/11/07 05:29:00;;;;;;;9.20;4.10;;;;;;;8.46;98.63;100132.54;105553;1257;97704;-78
2023/11/07 05:31:46;;;;;;;7.10;3.80;;;;;;;8.46;98.59;100136.73;108557;1253;94046;-78
2023/11/07 05:34:32;;;;;;;8.10;3.60;;;;;;;8.47;98.44;100140.04;105886;1257;97140;-78
2023/11/07 05:37:18;;;;;;;10.10;3.60;;;;;;;8.48;98.40;100145.64;105775;1256;101364;-77
2023/11/07 05:40:04;;;;;;;7.70;3.70;;;;;;;8.49;98.38;100141.34;105639;1253;100841;-77
2023/11/07 05:42:52;;;;;;;5.60;3.70;;;;;;;8.51;98.36;100139.39;105577;1258;97812;-77
2023/11/07 05:45:37;;;;;;;7.80;3.80;;;;;;;8.51;98.56;100143.30;105539;1253;96680;-77
2023/11/07 05:48:24;;;;;;;6.40;3.30;;;;;;;8.51;98.49;100146.33;105553;1256;96600;-78
2023/11/07 05:51:10;;;;;;;8.60;3.50;;;;;;;8.52;98.56;100147.66;105370;1259;100029;-77
2023/11/07 05:53:55;;;;;;;11.50;3.50;;;;;;;8.53;98.67;100151.98;105615;1258;99784;-77
2023/11/07 05:56:41;;;;;;;8.70;3.70;;;;;;;8.54;98.72;100154.17;105507;1257;97810;-78
2023/11/07 05:59:27;;;;;;;9.00;4.10;;;;;;;8.54;98.58;100158.05;105545;1253;97865;-78
2023/11/07 06:02:12;;;;;;;6.20;3.00;;;;;;;8.56;98.86;100158.88;105712;1253;97153;-78
2023/11/07 06:04:58;;;;;;;11.10;3.60;;;;;;;8.59;98.92;100158.42;105768;1258;100002;-78
2023/11/07 06:07:45;;;;;;;7.10;3.60;;;;;;;8.60;98.87;100160.70;105622;1257;99117;-78
2023/11/07 06:10:30;;;;;;;8.10;3.10;;;;;;;8.63;98.83;100165.95;105500;1257;99158;-77
2023/11/07 06:13:16;;;;;;;8.50;3.30;;;;;;;8.65;98.83;100172.06;105333;1259;96708;-77
2023/11/07 06:16:06;;;;;;;7.60;4.20;;;;;;;8.68;98.99;100179.00;105530;1253;97169;-78
2023/11/07 06:18:52;;;;;;;9.20;3.90;;;;;;;8.70;99.07;100179.12;105445;1253;101327;-78
2023/11/07 06:21:38;;;;;;;10.10;4.10;;;;;;;8.73;99.09;100180.58;105521;1253;99085;-78
2023/11/07 06:24:24;;;;;;;6.20;3.40;;;;;;;8.75;99.06;100179.08;105699;1257;98970;-78
2023/11/07 06:27:10;;;;;;;6.20;3.30;;;;;;;8.76;99.05;100182.32;105534;1259;96623;-78
2023/11/07 06:29:58;;;;;;;7.20;3.90;;;;;;;8.78;98.94;100181.03;105587;1259;96998;-78
2023/11/07 06:32:44;;;;;;;7.60;3.20;;;;;;;8.78;98.87;100180.45;105681;1257;100731;-78
2023/11/07 06:35:29;;;;;;;7.80;3.70;;;;;;;8.79;98.73;100184.41;105456;1256;100931;-77
2023/11/07 06:38:17;;;;;;;8.70;3.10;;;;;;;8.80;98.64;100194.29;105612;1258;99060;-77
2023/11/07 06:41:02;;;;;;;9.20;4.50;;;;;;;8.81;98.70;100197.30;105567;1258;97483;-78
2023/11/07 06:43:50;;;;;;;11.50;4.30;;;;;;;8.82;98.77;100195.77;105455;1258;97196;-77
2023/11/07 06:46:40;;;;;;;9.40;3.40;;;;;;;8.83;98.76;100199.34;105626;1253;100130;-77
2023/11/07 06:49:25;;;;;;;7.10;3.50;;;;;;;8.85;98.80;100202.70;105473;1259;99831;-78
2023/11/07 06:52:11;;;;;;;9.70;3.60;;;;;;;8.87;98.90;100203.71;105533;1253;98986;-78
2023/11/07 06:54:57;;;;;;;8.60;3.40;;;;;;;8.91;99.10;100203.47;105755;1258;96527;-78
2023/11/07 06:57:42;;;;;;;7.00;3.50;;;;;;;8.96;99.23;100205.46;105693;1257;98371;-78
2023/11/07 07:00:29;;;;;;;8.20;3.50;;;;;;;9.03;99.35;100207.48;105445;1253;101971;-77
2023/11/07 07:03:14;;;;;;;8.30;3.80;;;;;;;9.10;99.31;100212.94;105519;1253;100027;-77
2023/11/07 07:06:00;;;;;;;6.90;3.60;;;;;;;9.18;99.42;100217.92;105501;1257;97870;-77
2023/11/07 07:08:46;;;;;;;8.00;3.60;;;;;;;9.24;99.41;100221.00;105540;1257;96635;-77
2023/11/07 07:11:32;;;;;;;8.30;3.70;;;;;;;9.29;99.42;100226.16;105422;1257;97202;-76
2023/11/07 07:14:18;;;;;;;9.80;3.90;;;;;;;9.31;99.00;100229.56;105536;1259;101645;-78
2023/11/07 07:17:07;;;;;;;7.60;3.40;;;;;;;9.34;99.07;100231.52;105638;1253;99159;-77
2023/11/07 07:19:53;;;;;;;8.40;2.80;;;;;;;9.37;99.17;100230.29;105665;1253;97711;-76
2023/11/07 07:22:41;;;;;;;5.80;2.50;;;;;;;9.40;98.97;100233.20;105635;1257;96596;-77
2023/11/07 07:25:27;;;;;;;9.60;3.40;;;;;;;9.44;98.74;100233.94;105558;1258;97300;-77
2023/11/07 07:28:12;;;;;;;10.30;3.80;;;;;;;9.48;98.78;100238.80;105428;1259;100034;-78
2023/11/07 07:30:59;;;;;;;4.40;3.10;;;;;;;9.51;98.74;100239.77;105594;1254;100884;-78
2023/11/07 07:33:45;;;;;;;5.90;3.10;;;;;;;9.57;99.19;100242.08;105639;1259;98985;-78
2023/11/07 07:36:33;;;;;;;15.10;4.90;;;;;;;9.65;99.32;100243.02;105677;1253;97474;-78
2023/11/07 07:39:27;;;;;;;6.30;3.40;;;;;;;9.74;99.48;100246.37;105614;1258;97122;-79
2023/11/07 07:42:17;;;;;;;10.80;3.70;;;;;;;9.82;98.95;100251.39;105577;1257;100002;-77
2023/11/07 07:45:07;;;;;;;12.90;4.10;;;;;;;9.88;98.90;100253.35;105522;1258;100303;-77
2023/11/07 07:47:53;;;;;;;7.60;3.30;;;;;;;9.93;98.86;100255.86;105523;1258;98981;-78
2023/11/07 07:50:42;;;;;;;9.40;3.60;;;;;;;9.98;98.22;100258.67;105264;1259;96601;-79
2023/11/07 07:53:28;;;;;;;6.80;3.10;;;;;;;10.02;98.12;100262.75;105530;1259;97201;-79
2023/11/07 07:56:14;;;;;;;8.50;4.50;;;;;;;10.07;97.84;100262.55;105960;1254;100554;-83
2023/11/07 07:58:59;;;;;;;8.90;3.70;;;;;;;10.11;97.90;100264.79;106371;1253;99194;-82
2023/11/07 08:01:45;;;;;;;6.20;3.30;;;;;;;10.15;97.45;100266.98;106397;1254;97698;-82
2023/11/07 08:04:31;;;;;;;8.20;3.30;;;;;;;10.20;97.39;100268.59;106193;1253;97198;-82
2023/11/07 08:07:17;;;;;;;6.00;2.90;;;;;;;10.25;96.90;100273.16;106447;1254;97141;-81
2023/11/07 08:10:09;;;;;;;6.30;3.70;;;;;;;10.30;96.75;100275.61;106899;1254;101285;-80
2023/11/07 08:12:56;;;;;;;5.90;3.70;;;;;;;10.34;96.64;100273.79;107778;1253;99101;-83
2023/11/07 08:15:43;;;;;;;4.20;3.00;;;;;;;10.39;96.17;100278.55;106295;1253;98699;-81
2023/11/07 08:18:29;;;;;;;4.50;2.50;;;;;;;10.43;96.13;100281.52;106070;1257;96542;-80
2023/11/07 08:21:15;;;;;;;5.90;2.90;;;;;;;10.48;96.03;100285.72;106548;1253;97035;-80
2023/11/07 08:24:00;;;;;;;5.00;3.00;;;;;;;10.53;96.02;100289.48;106509;1253;99970;-82
2023/11/07 08:26:47;;;;;;;4.40;2.40;;;;;;;10.58;95.87;100288.52;106250;1253;100312;-81
2023/11/07 08:29:33;;;;;;;4.40;2.40;;;;;;;10.63;95.83;100289.30;106054;1269;99013;-77
2023/11/07 08:32:18;;;;;;;4.50;2.40;;;;;;;10.69;95.60;100290.13;105725;1253;96621;-78
2023/11/07 08:35:07;;;;;;;4.30;2.20;;;;;;;10.74;95.46;100289.10;105580;1257;96585;-77
2023/11/07 08:37:54;;;;;;;5.90;3.00;;;;;;;10.79;95.14;100290.98;105613;1253;101398;-78
2023/11/07 08:40:39;;;;;;;6.80;2.70;;;;;;;10.84;94.94;100288.88;105651;1253;100012;-82
2023/11/07 08:43:25;;;;;;;7.10;2.60;;;;;;;10.87;94.50;100289.23;106155;1262;99094;-81
2023/11/07 08:46:11;;;;;;;6.70;2.80;;;;;;;10.90;94.63;100295.50;106121;1259;96776;-82
2023/11/07 08:48:57;;;;;;;4.00;2.40;;;;;;;10.93;94.52;100301.27;106372;1256;97595;-80
2023/11/07 08:51:43;;;;;;;3.60;2.30;;;;;;;10.95;94.14;100302.68;106311;1259;101358;-81
2023/11/07 08:54:29;;;;;;;8.20;3.00;;;;;;;10.98;93.98;100304.66;106481;1254;99123;-81
2023/11/07 08:57:15;;;;;;;8.00;2.60;;;;;;;11.00;94.07;100305.95;106149;1254;99047;-83
2023/11/07 09:00:01;;;;;;;4.10;2.20;;;;;;;11.03;94.24;100305.08;106167;1253;96300;-83
2023/11/07 09:02:50;;;;;;;5.10;2.30;;;;;;;11.05;94.01;100314.20;106446;1259;96661;-79
2023/11/07 09:05:37;;;;;;;4.10;1.90;;;;;;;11.08;94.07;100315.79;106660;1254;100178;-80
2023/11/07 09:08:23;;;;;;;6.70;2.60;;;;;;;11.11;93.96;100323.19;106748;1254;100143;-80
2023/11/07 09:11:09;;;;;;;5.70;2.30;;;;;;;11.13;93.86;100321.50;106756;1258;97746;-82
2023/11/07 09:13:55;;;;;;;3.50;2.40;;;;;;;11.14;93.35;100324.65;106893;1253;97054;-82
2023/11/07 09:16:40;;;;;;;3.90;2.20;;;;;;;11.18;93.35;100330.11;106519;1253;96680;-82
2023/11/07 09:19:26;;;;;;;3.50;2.40;;;;;;;11.20;93.08;100336.04;106142;1258;101042;-82
2023/11/07 09:22:11;;;;;;;6.30;2.60;;;;;;;11.22;93.09;100340.58;106236;1257;99147;-78
2023/11/07 09:24:56;;;;;;;5.50;2.30;;;;;;;11.25;92.91;100337.91;105759;1257;99046;-78
2023/11/07 09:27:43;;;;;;;4.00;2.10;;;;;;;11.29;93.15;100340.05;105767;1254;97072;-83
2023/11/07 09:30:29;;;;;;;7.10;2.40;;;;;;;11.34;93.54;100340.34;106631;1254;97339;-80
2023/11/07 09:33:15;;;;;;;4.40;1.90;;;;;;;11.39;93.18;100338.25;105869;1254;101638;-76
2023/11/07 09:36:00;;;;;;;3.50;1.60;;;;;;;11.42;92.90;100340.99;105644;1254;99104;-78
2023/11/07 09:38:46;;;;;;;2.10;1.30;;;;;;;11.45;92.67;100345.63;107947;1258;98828;-77
2023/11/07 09:41:32;;;;;;;5.60;3.00;;;;;;;11.47;92.34;100345.39;105571;1259;96594;-77
2023/11/07 09:44:18;;;;;;;4.80;2.40;;;;;;;11.50;92.45;100349.11;105533;1258;96604;-77
2023/11/07 09:47:05;;;;;;;5.60;2.40;;;;;;;11.53;92.30;100347.80;105444;1259;100011;-78
2023/11/07 09:49:53;;;;;;;5.60;3.00;;;;;;;11.56;92.25;100346.09;105334;1259;99171;-76
2023/11/07 09:52:43;;;;;;;4.50;3.10;;;;;;;11.58;91.99;100347.71;105490;1257;99006;-76
2023/11/07 09:55:29;;;;;;;4.80;2.30;;;;;;;11.58;91.70;100350.59;105611;1254;96639;-77
2023/11/07 09:58:27;;;;;;;5.40;2.40;;;;;;;11.58;91.38;100349.15;105716;1259;97158;-77
2023/11/07 10:01:14;;;;;;;5.10;2.00;;;;;;;11.59;91.21;100351.27;105584;1259;100074;-77
2023/11/07 10:04:02;;;;;;;6.30;1.80;;;;;;;11.60;90.93;100350.95;105467;1259;99796;-77
2023/11/07 10:06:47;;;;;;;2.80;2.00;;;;;;;11.60;90.63;100350.28;105420;1259;97765;-78
2023/11/07 10:09:33;;;;;;;5.00;2.20;;;;;;;11.61;90.89;100354.09;105431;1259;96618;-77
2023/11/07 10:12:19;;;;;;;4.40;2.10;;;;;;;11.60;90.55;100352.59;105426;1258;97063;-77
2023/11/07 10:15:18;;;;;;;6.10;2.40;;;;;;;11.60;90.70;100353.34;105555;1254;99997;-78
2023/11/07 10:18:08;;;;;;;4.80;2.10;;;;;;;11.62;90.83;100348.73;105487;1259;99113;-77
2023/11/07 10:20:54;;;;;;;4.40;2.00;;;;;;;11.65;90.89;100344.98;105544;1254;99437;-78
2023/11/07 10:23:41;;;;;;;4.70;2.00;;;;;;;11.68;90.78;100348.64;105454;1254;96631;-77
2023/11/07 10:26:27;;;;;;;5.90;3.20;;;;;;;11.68;90.57;100349.68;105495;1258;97914;-77
2023/11/07 10:29:25;;;;;;;4.70;2.00;;;;;;;11.70;90.60;100351.75;105559;1258;101236;-77
2023/11/07 10:32:11;;;;;;;3.10;1.70;;;;;;;11.71;90.61;100349.63;105522;1254;100357;-77
2023/11/07 10:35:01;;;;;;;4.70;1.90;;;;;;;11.74;90.85;100348.52;105688;1258;97747;-77
2023/11/07 10:37:46;;;;;;;2.80;1.80;;;;;;;11.77;90.72;100347.17;105735;1259;97120;-79
2023/11/07 10:40:38;;;;;;;5.50;1.70;;;;;;;11.78;90.33;100348.13;105537;1258;97119;-78
2023/11/07 10:43:38;;;;;;;2.90;1.70;;;;;;;11.81;90.50;100348.30;105461;1259;100813;-79
2023/11/07 10:46:25;;;;;;;2.90;1.90;;;;;;;11.82;90.09;100350.81;105501;1254;99146;-77
2023/11/07 10:49:13;;;;;;;5.50;1.90;;;;;;;11.83;89.91;100348.80;105710;1259;98985;-77
2023/11/07 10:52:00;;;;;;;2.80;1.60;;;;;;;11.83;90.02;100349.79;105320;1259;96763;-77
2023/11/07 10:54:46;;;;;;;5.10;2.80;;;;;;;11.84;89.82;100348.55;105467;1259;96998;-77
2023/11/07 10:57:33;;;;;;;6.10;1.80;;;;;;;11.84;89.48;100347.27;105495;1259;100000;-78
2023/11/07 11:00:20;;;;;;;5.00;2.50;;;;;;;11.83;89.46;100347.85;105351;1253;99078;-77
2023/11/07 11:03:11;;;;;;;3.00;1.90;;;;;;;11.83;89.39;100347.14;105481;1258;97702;-77
2023/11/07 11:06:02;;;;;;;3.60;1.50;;;;;;;11.80;89.31;100344.83;105348;1254;96616;-76
2023/11/07 11:08:50;;;;;;;5.10;1.50;;;;;;;11.78;89.11;100342.09;105494;1259;98008;-79
2023/11/07 11:11:38;;;;;;;3.50;1.90;;;;;;;11.76;89.00;100341.88;105633;1259;100031;-77
2023/11/07 11:14:25;;;;;;;4.30;1.70;;;;;;;11.73;88.75;100339.60;105393;1258;100005;-77
2023/11/07 11:17:24;;;;;;;5.00;1.80;;;;;;;11.71;88.96;100340.73;105467;1254;97695;-78
2023/11/07 11:20:22;;;;;;;5.90;2.00;;;;;;;11.69;88.77;100343.54;105422;1253;97912;-76
2023/11/07 11:23:18;;;;;;;11.20;2.90;;;;;;;11.66;88.86;100346.15;105440;1259;97052;-78
2023/11/07 11:26:32;;;;;;;4.10;2.10;;;;;;;11.66;89.18;100344.54;105448;1258;100809;-77
2023/11/07 11:29:28;;;;;;;3.30;2.40;;;;;;;11.64;89.11;100344.85;105428;1259;100168;-76
2023/11/07 11:32:31;;;;;;;5.40;2.00;;;;;;;11.65;89.12;100346.59;105496;1260;99484;-77
2023/11/07 11:35:21;;;;;;;2.70;1.80;;;;;;;11.68;89.38;100346.29;105526;1258;96537;-76
2023/11/07 11:38:10;;;;;;;5.40;2.00;;;;;;;11.72;89.36;100345.63;105497;1259;96606;-78
2023/11/07 11:40:59;;;;;;;6.40;3.00;;;;;;;11.76;89.52;100344.84;105435;1259;99645;-77
2023/11/07 11:44:10;;;;;;;12.50;4.30;;;;;;;11.80;89.18;100343.92;105533;1253;99117;-77
2023/11/07 11:46:55;;;;;;;4.00;2.20;;;;;;;11.83;88.99;100342.61;105421;1253;97611;-77
2023/11/07 11:50:14;;;;;;;6.10;2.70;;;;;;;11.87;89.34;100339.16;105412;1259;97948;-76
2023/11/07 11:53:00;;;;;;;6.50;2.40;;;;;;;11.91;89.11;100333.42;105331;1259;100164;-78
2023/11/07 11:55:58;;;;;;;3.40;2.00;;;;;;;11.93;88.75;100333.05;105408;1260;100068;-77
2023/11/07 11:59:03;;;;;;;6.40;2.20;;;;;;;11.95;88.54;100332.25;105414;1259;99051;-77
2023/11/07 12:01:54;;;;;;;3.30;2.00;;;;;;;11.98;88.84;100333.58;105355;1259;97736;-77
2023/11/07 12:04:48;;;;;;;5.00;1.90;;;;;;;12.02;88.43;100330.91;105335;1260;97088;-78
2023/11/07 12:07:33;;;;;;;4.40;2.20;;;;;;;12.05;88.10;100333.23;105396;1259;97277;-77
2023/11/07 12:10:20;;;;;;;4.60;2.10;;;;;;;12.08;87.94;100331.78;105708;1267;100082;-78
2023/11/07 12:13:06;;;;;;;3.60;1.60;;;;;;;12.12;88.07;100333.08;105517;1258;100408;-78
2023/11/07 12:15:52;;;;;;;2.60;1.70;;;;;;;12.15;87.91;100333.87;105525;1258;98028;-76
2023/11/07 12:18:42;;;;;;;5.60;1.80;;;;;;;12.17;87.75;100336.06;105467;1254;97808;-77
2023/11/07 12:21:28;;;;;;;5.10;1.40;;;;;;;12.22;87.84;100342.11;105502;1254;96600;-81
2023/11/07 12:24:17;;;;;;;3.40;1.60;;;;;;;12.25;87.22;100344.84;105577;1259;99960;-79
2023/11/07 12:27:03;;;;;;;2.90;1.60;;;;;;;12.29;86.34;100340.55;105489;1254;99063;-79
2023/11/07 12:29:49;;;;;;;2.60;1.40;;;;;;;12.32;85.70;100340.50;105493;1275;98987;-77
2023/11/07 12:32:34;;;;;;;4.70;1.50;;;;;;;12.33;85.28;100340.18;105267;1259;96693;-78
2023/11/07 12:35:21;;;;;;;3.40;1.50;;;;;;;12.34;84.90;100339.52;105490;1253;96632;-77
2023/11/07 12:38:10;;;;;;;4.00;1.70;;;;;;;12.35;84.86;100339.06;105443;1259;100886;-78
2023/11/07 12:40:56;;;;;;;3.20;1.70;;;;;;;12.34;84.82;100335.97;105520;1253;100398;-77
2023/11/07 12:43:42;;;;;;;2.10;1.50;;;;;;;12.34;85.04;100334.85;105302;1259;97729;-77
2023/11/07 12:46:30;;;;;;;4.10;1.60;;;;;;;12.34;85.01;100332.91;105545;1257;96635;-77
2023/11/07 12:49:17;;;;;;;6.40;2.10;;;;;;;12.33;84.77;100333.27;106061;1263;96834;-78
2023/11/07 12:52:12;;;;;;;3.50;1.30;;;;;;;12.32;84.94;100334.27;105651;1259;99980;-79